createdAt,value
2019-01-04T00:00:38.939Z,71.10
2019-01-04T00:01:25.107Z,71.20
2019-01-04T00:02:02.060Z,71.10
2019-01-04T00:02:39.014Z,71.80
2019-01-04T00:03:15.454Z,71.90
2019-01-04T00:03:52.133Z,71.90
2019-01-04T00:04:28.772Z,72.00
2019-01-04T00:05:07.138Z,72.10
2019-01-04T00:05:43.930Z,72.20
2019-01-04T00:06:20.819Z,71.80
2019-01-04T00:06:56.971Z,71.80
2019-01-04T00:07:33.658Z,71.50
2019-01-04T00:08:10.353Z,71.20
2019-01-04T00:08:47.311Z,71.10
2019-01-04T00:09:24.234Z,71.10
2019-01-04T00:10:01.372Z,71.20
2019-01-04T00:10:38.626Z,71.20
2019-01-04T00:11:15.281Z,70.90
2019-01-04T00:11:52.391Z,70.90
2019-01-04T00:12:28.772Z,71.00
2019-01-04T00:13:05.580Z,71.00
2019-01-04T00:13:42.512Z,71.00
2019-01-04T00:14:19.157Z,70.80
2019-01-04T00:14:56.016Z,70.60
2019-01-04T00:15:33.160Z,70.60
2019-01-04T00:16:09.655Z,70.60
2019-01-04T00:16:46.218Z,70.70
2019-01-04T00:17:23.272Z,70.80
2019-01-04T00:18:00.055Z,71.00
2019-01-04T00:18:36.411Z,71.20
2019-01-04T00:19:13.120Z,71.40
2019-01-04T00:19:50.072Z,71.50
2019-01-04T00:20:26.850Z,71.40
2019-01-04T00:21:04.041Z,71.20
2019-01-04T00:21:40.810Z,70.90
2019-01-04T00:22:17.600Z,71.00
2019-01-04T00:22:54.265Z,71.70
2019-01-04T00:23:32.619Z,70.80
2019-01-04T00:24:09.313Z,70.70
2019-01-04T00:24:45.952Z,70.60
2019-01-04T00:25:22.602Z,70.30
2019-01-04T00:25:59.411Z,70.40
2019-01-04T00:26:36.344Z,70.30
2019-01-04T00:27:12.950Z,70.50
2019-01-04T00:27:49.740Z,70.70
2019-01-04T00:28:26.830Z,70.90
2019-01-04T00:29:03.581Z,71.00
2019-01-04T00:29:40.581Z,70.90
2019-01-04T00:30:17.507Z,71.10
2019-01-04T00:30:55.030Z,71.20
2019-01-04T00:31:31.845Z,71.30
2019-01-04T00:32:08.815Z,71.10
2019-01-04T00:32:45.694Z,71.20
2019-01-04T00:33:22.565Z,71.20
2019-01-04T00:33:59.727Z,71.40
2019-01-04T00:34:36.160Z,71.40
2019-01-04T00:35:12.690Z,71.40
2019-01-04T00:35:49.669Z,71.40
2019-01-04T00:36:26.603Z,71.20
2019-01-04T00:37:03.259Z,71.50
2019-01-04T00:37:40.198Z,71.70
2019-01-04T00:38:16.867Z,71.70
2019-01-04T00:38:53.639Z,71.80
2019-01-04T00:39:30.326Z,71.70
2019-01-04T00:40:08.838Z,71.70
2019-01-04T00:40:45.623Z,71.90
2019-01-04T00:41:23.546Z,71.80
2019-01-04T00:42:00.444Z,71.50
2019-01-04T00:42:37.462Z,71.40
2019-01-04T00:43:14.242Z,71.40
2019-01-04T00:43:50.778Z,71.50
2019-01-04T00:44:27.570Z,71.40
2019-01-04T00:45:03.958Z,71.40
2019-01-04T00:45:40.995Z,71.10
2019-01-04T00:46:18.974Z,70.90
2019-01-04T00:46:55.607Z,70.80
2019-01-04T00:47:32.167Z,70.70
2019-01-04T00:48:08.888Z,70.70
2019-01-04T00:48:45.445Z,70.70
2019-01-04T00:49:22.145Z,70.60
2019-01-04T00:49:58.725Z,70.70
2019-01-04T00:50:35.575Z,70.90
2019-01-04T00:51:12.153Z,71.60
2019-01-04T00:51:49.007Z,70.90
2019-01-04T00:52:25.768Z,70.90
2019-01-04T00:53:02.621Z,70.80
2019-01-04T00:53:39.461Z,70.90
2019-01-04T00:54:15.901Z,71.00
2019-01-04T00:54:54.431Z,70.90
2019-01-04T00:55:45.828Z,71.00
2019-01-04T00:56:42.899Z,71.20
2019-01-04T00:57:40.168Z,71.30
2019-01-04T00:58:34.507Z,71.30
2019-01-04T00:59:22.666Z,71.00
2019-01-04T01:00:18.915Z,70.70
2019-01-04T01:01:25.794Z,70.60
2019-01-04T01:02:24.424Z,70.50
2019-01-04T01:03:12.306Z,70.40
2019-01-04T01:04:03.198Z,70.00
2019-01-04T01:04:48.011Z,70.00
2019-01-04T01:05:42.391Z,69.90
2019-01-04T01:06:21.454Z,69.80
2019-01-04T01:07:17.240Z,69.90
2019-01-04T01:07:58.665Z,70.00
2019-01-04T01:08:55.588Z,70.30
2019-01-04T01:09:34.500Z,70.30
2019-01-04T01:10:39.746Z,70.60
2019-01-04T01:11:45.236Z,70.50
2019-01-04T01:12:40.973Z,70.40
2019-01-04T01:13:36.732Z,70.50
2019-01-04T01:14:32.613Z,71.10
2019-01-04T01:15:29.810Z,70.50
2019-01-04T01:16:24.151Z,70.40
2019-01-04T01:17:36.290Z,70.50
2019-01-04T01:18:34.305Z,70.10
2019-01-04T01:19:16.568Z,70.10
2019-01-04T01:19:58.197Z,70.10
2019-01-04T01:20:40.237Z,70.30
2019-01-04T01:21:35.799Z,70.20
2019-01-04T01:22:14.706Z,70.20
2019-01-04T01:23:11.139Z,70.20
2019-01-04T01:24:12.785Z,70.30
2019-01-04T01:25:26.748Z,70.30
2019-01-04T01:26:25.361Z,70.10
2019-01-04T01:27:07.766Z,70.30
2019-01-04T01:27:52.775Z,70.70
2019-01-04T01:28:51.419Z,70.90
2019-01-04T01:29:56.172Z,71.20
2019-01-04T01:31:01.270Z,71.20
2019-01-04T01:31:40.498Z,71.30
2019-01-04T01:32:48.416Z,71.20
2019-01-04T01:33:42.636Z,71.00
2019-01-04T01:34:49.104Z,71.10
2019-01-04T01:35:37.234Z,70.40
2019-01-04T01:36:25.893Z,70.00
2019-01-04T01:37:39.077Z,70.10
2019-01-04T01:38:24.308Z,70.40
2019-01-04T01:39:37.252Z,71.30
2019-01-04T01:40:31.542Z,70.80
2019-01-04T01:41:30.078Z,71.10
2019-01-04T01:42:18.409Z,71.20
2019-01-04T01:43:15.283Z,71.40
2019-01-04T01:44:03.047Z,71.10
2019-01-04T01:45:01.496Z,70.90
2019-01-04T01:45:58.359Z,71.00
2019-01-04T01:46:43.041Z,71.20
2019-01-04T01:47:22.305Z,71.40
2019-01-04T01:47:58.927Z,71.20
2019-01-04T01:48:37.614Z,70.90
2019-01-04T01:49:36.273Z,70.70
2019-01-04T01:50:36.721Z,70.60
2019-01-04T01:51:18.394Z,70.80
2019-01-04T01:51:56.954Z,70.90
2019-01-04T01:52:36.490Z,70.90
2019-01-04T01:53:15.853Z,70.90
2019-01-04T01:53:52.680Z,71.10
2019-01-04T01:54:27.991Z,71.00
2019-01-04T01:55:03.911Z,70.80
2019-01-04T01:55:38.871Z,70.90
2019-01-04T01:56:15.515Z,70.90
2019-01-04T01:56:52.369Z,70.80
2019-01-04T01:57:29.386Z,70.80
2019-01-04T01:58:06.419Z,70.70
2019-01-04T01:58:43.108Z,70.70
2019-01-04T01:59:19.706Z,70.70
2019-01-04T01:59:56.445Z,70.70
2019-01-04T02:00:33.295Z,70.70
2019-01-04T02:01:10.297Z,70.50
2019-01-04T02:01:47.125Z,70.40
2019-01-04T02:02:25.754Z,70.60
2019-01-04T02:03:02.833Z,70.60
2019-01-04T02:03:39.503Z,70.50
2019-01-04T02:04:16.185Z,70.60
2019-01-04T02:04:52.912Z,70.40
2019-01-04T02:05:29.641Z,70.60
2019-01-04T02:06:06.625Z,70.60
2019-01-04T02:06:43.323Z,70.80
2019-01-04T02:07:20.030Z,71.00
2019-01-04T02:07:57.034Z,71.00
2019-01-04T02:08:33.709Z,71.10
2019-01-04T02:09:11.004Z,71.30
2019-01-04T02:09:47.815Z,71.30
2019-01-04T02:10:24.928Z,71.80
2019-01-04T02:11:01.167Z,71.40
2019-01-04T02:11:37.650Z,71.50
2019-01-04T02:12:14.398Z,71.10
2019-01-04T02:12:51.335Z,71.10
2019-01-04T02:13:28.537Z,71.10
2019-01-04T02:14:05.287Z,71.20
2019-01-04T02:14:41.650Z,71.10
2019-01-04T02:15:18.405Z,71.60
2019-01-04T02:15:54.981Z,71.30
2019-01-04T02:16:33.604Z,71.60
2019-01-04T02:17:11.504Z,71.00
2019-01-04T02:17:48.455Z,71.10
2019-01-04T02:18:25.603Z,70.70
2019-01-04T02:19:02.305Z,70.40
2019-01-04T02:19:39.146Z,70.50
2019-01-04T02:20:16.070Z,70.70
2019-01-04T02:20:52.427Z,70.80
2019-01-04T02:21:29.071Z,70.70
2019-01-04T02:22:05.772Z,70.90
2019-01-04T02:22:42.697Z,70.90
2019-01-04T02:23:19.990Z,71.40
2019-01-04T02:23:56.663Z,71.00
2019-01-04T02:24:33.229Z,71.00
2019-01-04T02:25:10.144Z,70.90
2019-01-04T02:25:47.869Z,70.80
2019-01-04T02:26:24.751Z,70.60
2019-01-04T02:27:01.260Z,70.70
2019-01-04T02:27:37.732Z,70.70
2019-01-04T02:28:14.111Z,70.50
2019-01-04T02:28:51.133Z,70.40
2019-01-04T02:29:28.030Z,70.30
2019-01-04T02:30:05.345Z,70.30
2019-01-04T02:30:42.065Z,70.40
2019-01-04T02:31:18.768Z,70.70
2019-01-04T02:31:55.455Z,70.90
2019-01-04T02:32:32.237Z,70.90
2019-01-04T02:33:08.935Z,70.70
2019-01-04T02:33:45.785Z,70.50
2019-01-04T02:34:22.540Z,70.80
2019-01-04T02:34:59.135Z,70.90
2019-01-04T02:35:35.685Z,71.20
2019-01-04T02:36:12.367Z,71.20
2019-01-04T02:36:48.818Z,70.90
2019-01-04T02:37:25.503Z,70.80
2019-01-04T02:38:02.576Z,70.20
2019-01-04T02:38:39.519Z,69.90
2019-01-04T02:39:16.369Z,69.60
2019-01-04T02:39:53.644Z,69.50
2019-01-04T02:40:30.267Z,69.70
2019-01-04T02:41:06.354Z,69.90
2019-01-04T02:41:42.972Z,70.00
2019-01-04T02:42:19.623Z,70.00
2019-01-04T02:42:56.183Z,69.70
2019-01-04T02:43:33.250Z,69.70
2019-01-04T02:44:09.779Z,69.80
2019-01-04T02:44:46.434Z,70.00
2019-01-04T02:45:23.171Z,70.10
2019-01-04T02:46:00.194Z,70.20
2019-01-04T02:46:37.096Z,70.30
2019-01-04T02:47:13.686Z,70.50
2019-01-04T02:47:50.154Z,71.20
2019-01-04T02:48:26.732Z,71.40
2019-01-04T02:49:03.855Z,70.90
2019-01-04T02:49:40.524Z,71.00
2019-01-04T02:50:17.077Z,71.00
2019-01-04T02:50:54.035Z,70.90
2019-01-04T02:51:30.970Z,70.80
2019-01-04T02:52:07.741Z,70.50
2019-01-04T02:52:44.558Z,70.20
2019-01-04T02:53:21.055Z,70.00
2019-01-04T02:53:58.097Z,69.80
2019-01-04T02:54:34.425Z,69.80
2019-01-04T02:55:11.105Z,70.10
2019-01-04T02:55:47.886Z,70.10
2019-01-04T02:56:24.823Z,70.20
2019-01-04T02:57:01.678Z,70.10
2019-01-04T02:57:38.457Z,69.90
2019-01-04T02:58:15.037Z,70.00
2019-01-04T02:58:51.978Z,70.10
2019-01-04T02:59:28.892Z,70.00
2019-01-04T03:00:06.857Z,69.90
2019-01-04T03:00:43.499Z,69.70
2019-01-04T03:01:20.400Z,69.40
2019-01-04T03:01:56.997Z,69.50
2019-01-04T03:02:33.899Z,69.30
2019-01-04T03:03:10.798Z,69.50
2019-01-04T03:03:47.359Z,69.80
2019-01-04T03:04:23.630Z,70.10
2019-01-04T03:05:00.329Z,70.10
2019-01-04T03:05:37.160Z,70.00
2019-01-04T03:06:14.190Z,70.00
2019-01-04T03:06:50.729Z,70.30
2019-01-04T03:07:27.362Z,70.40
2019-01-04T03:08:04.767Z,70.70
2019-01-04T03:08:41.601Z,70.70
2019-01-04T03:09:18.483Z,70.80
2019-01-04T03:09:55.033Z,70.90
2019-01-04T03:10:31.851Z,71.00
2019-01-04T03:11:08.542Z,71.00
2019-01-04T03:11:45.121Z,71.00
2019-01-04T03:12:22.081Z,71.10
2019-01-04T03:12:58.303Z,71.10
2019-01-04T03:13:34.861Z,71.20
2019-01-04T03:14:11.372Z,71.10
2019-01-04T03:14:47.883Z,71.00
2019-01-04T03:15:24.512Z,70.90
2019-01-04T03:16:01.104Z,71.00
2019-01-04T03:16:38.156Z,70.90
2019-01-04T03:17:14.976Z,70.60
2019-01-04T03:17:51.622Z,70.20
2019-01-04T03:18:28.832Z,69.60
2019-01-04T03:19:05.707Z,69.70
2019-01-04T03:19:42.200Z,69.70
2019-01-04T03:20:18.668Z,69.70
2019-01-04T03:20:55.482Z,69.50
2019-01-04T03:21:32.107Z,69.40
2019-01-04T03:22:09.015Z,69.50
2019-01-04T03:22:46.036Z,69.50
2019-01-04T03:23:22.976Z,69.50
2019-01-04T03:24:00.014Z,69.60
2019-01-04T03:24:36.579Z,69.70
2019-01-04T03:25:13.296Z,69.50
2019-01-04T03:25:50.254Z,69.60
2019-01-04T03:26:27.265Z,69.80
2019-01-04T03:27:04.095Z,69.60
2019-01-04T03:27:40.559Z,69.80
2019-01-04T03:28:17.216Z,69.60
2019-01-04T03:28:53.955Z,69.60
2019-01-04T03:29:30.855Z,69.50
2019-01-04T03:30:07.682Z,69.60
2019-01-04T03:30:44.196Z,69.60
2019-01-04T03:31:20.965Z,69.50
2019-01-04T03:31:57.738Z,69.50
2019-01-04T03:32:34.906Z,69.40
2019-01-04T03:33:11.516Z,69.30
2019-01-04T03:33:47.953Z,70.20
2019-01-04T03:34:24.826Z,69.40
2019-01-04T03:35:01.344Z,69.30
2019-01-04T03:35:37.965Z,68.80
2019-01-04T03:36:14.596Z,69.00
2019-01-04T03:36:51.634Z,69.50
2019-01-04T03:37:28.606Z,69.80
2019-01-04T03:38:05.165Z,70.00
2019-01-04T03:38:41.923Z,70.00
2019-01-04T03:39:18.595Z,70.00
2019-01-04T03:39:55.922Z,70.10
2019-01-04T03:40:32.525Z,70.10
2019-01-04T03:41:09.108Z,70.10
2019-01-04T03:41:45.357Z,70.20
2019-01-04T03:42:21.949Z,70.10
2019-01-04T03:42:58.854Z,70.10
2019-01-04T03:43:35.344Z,70.20
2019-01-04T03:44:11.372Z,70.30
2019-01-04T03:44:48.362Z,70.20
2019-01-04T03:45:24.987Z,70.10
2019-01-04T03:46:01.902Z,70.30
2019-01-04T03:46:38.702Z,70.50
2019-01-04T03:47:15.232Z,70.50
2019-01-04T03:47:51.613Z,70.50
2019-01-04T03:48:28.643Z,70.40
2019-01-04T03:49:05.372Z,70.00
2019-01-04T03:49:41.874Z,69.70
2019-01-04T03:50:19.063Z,69.70
2019-01-04T03:50:55.754Z,69.60
2019-01-04T03:51:31.693Z,69.70
2019-01-04T03:52:08.634Z,69.80
2019-01-04T03:52:45.135Z,69.80
2019-01-04T03:53:21.726Z,69.50
2019-01-04T03:53:58.316Z,69.20
2019-01-04T03:54:35.259Z,68.90
2019-01-04T03:55:11.757Z,68.70
2019-01-04T03:55:48.507Z,68.70
2019-01-04T03:56:25.600Z,68.60
2019-01-04T03:57:02.235Z,68.60
2019-01-04T03:57:38.971Z,68.70
2019-01-04T03:58:15.693Z,68.70
2019-01-04T03:58:52.272Z,68.80
2019-01-04T03:59:29.058Z,69.00
2019-01-04T04:00:07.309Z,69.10
2019-01-04T04:00:44.448Z,69.20
2019-01-04T04:01:20.966Z,69.30
2019-01-04T04:01:57.371Z,69.50
2019-01-04T04:02:34.250Z,69.70
2019-01-04T04:03:10.740Z,70.00
2019-01-04T04:03:47.682Z,70.10
2019-01-04T04:04:24.275Z,71.00
2019-01-04T04:05:00.766Z,70.60
2019-01-04T04:05:37.584Z,70.90
2019-01-04T04:06:14.034Z,70.20
2019-01-04T04:06:50.454Z,70.10
2019-01-04T04:07:26.984Z,70.30
2019-01-04T04:08:03.389Z,70.40
2019-01-04T04:08:39.986Z,70.40
2019-01-04T04:09:16.636Z,70.40
2019-01-04T04:09:53.437Z,70.40
2019-01-04T04:10:30.168Z,70.40
2019-01-04T04:11:06.887Z,70.60
2019-01-04T04:11:43.637Z,70.50
2019-01-04T04:12:20.153Z,70.60
2019-01-04T04:12:56.618Z,70.90
2019-01-04T04:13:33.198Z,70.70
2019-01-04T04:14:09.385Z,70.70
2019-01-04T04:14:46.202Z,70.70
2019-01-04T04:15:22.703Z,70.80
2019-01-04T04:15:59.351Z,71.00
2019-01-04T04:16:35.818Z,71.00
2019-01-04T04:17:12.735Z,70.90
2019-01-04T04:17:49.414Z,70.90
2019-01-04T04:18:26.432Z,70.60
2019-01-04T04:19:03.503Z,70.50
2019-01-04T04:19:40.616Z,70.70
2019-01-04T04:20:17.179Z,70.70
2019-01-04T04:20:54.028Z,70.70
2019-01-04T04:21:31.190Z,70.80
2019-01-04T04:22:08.272Z,70.90
2019-01-04T04:22:45.056Z,71.00
2019-01-04T04:23:21.481Z,70.80
2019-01-04T04:23:58.281Z,70.20
2019-01-04T04:24:35.110Z,70.00
2019-01-04T04:25:11.582Z,70.00
2019-01-04T04:25:48.020Z,70.00
2019-01-04T04:26:25.178Z,70.20
2019-01-04T04:27:01.859Z,70.30
2019-01-04T04:27:38.459Z,70.10
2019-01-04T04:28:15.108Z,70.10
2019-01-04T04:28:52.120Z,70.30
2019-01-04T04:29:29.229Z,70.40
2019-01-04T04:30:06.850Z,70.40
2019-01-04T04:30:43.162Z,70.40
2019-01-04T04:31:20.148Z,70.60
2019-01-04T04:31:57.037Z,70.60
2019-01-04T04:32:33.942Z,70.70
2019-01-04T04:33:10.739Z,70.80
2019-01-04T04:33:47.611Z,70.90
2019-01-04T04:34:24.323Z,71.40
2019-01-04T04:35:01.669Z,70.90
2019-01-04T04:35:38.337Z,70.80
2019-01-04T04:36:15.163Z,71.00
2019-01-04T04:36:51.994Z,70.60
2019-01-04T04:37:28.641Z,70.50
2019-01-04T04:38:07.060Z,70.40
2019-01-04T04:38:44.104Z,70.00
2019-01-04T04:39:20.786Z,70.00
2019-01-04T04:39:57.166Z,70.30
2019-01-04T04:40:33.560Z,70.60
2019-01-04T04:41:10.171Z,70.50
2019-01-04T04:41:48.429Z,70.30
2019-01-04T04:42:25.161Z,70.20
2019-01-04T04:43:01.911Z,70.40
2019-01-04T04:43:38.692Z,70.10
2019-01-04T04:44:15.009Z,70.00
2019-01-04T04:44:51.501Z,70.10
2019-01-04T04:45:28.299Z,70.20
2019-01-04T04:46:04.829Z,70.10
2019-01-04T04:46:41.607Z,70.20
2019-01-04T04:47:18.448Z,70.00
2019-01-04T04:47:55.051Z,69.70
2019-01-04T04:48:30.917Z,69.50
2019-01-04T04:49:07.184Z,69.50
2019-01-04T04:49:44.012Z,69.60
2019-01-04T04:50:20.637Z,69.70
2019-01-04T04:50:57.019Z,69.40
2019-01-04T04:51:33.466Z,69.30
2019-01-04T04:52:10.738Z,69.20
2019-01-04T04:52:47.425Z,69.30
2019-01-04T04:53:24.406Z,69.50
2019-01-04T04:54:00.996Z,69.70
2019-01-04T04:54:37.664Z,69.60
2019-01-04T04:55:14.785Z,69.50
2019-01-04T04:55:51.195Z,69.80
2019-01-04T04:56:27.984Z,69.80
2019-01-04T04:57:04.736Z,69.80
2019-01-04T04:57:41.564Z,69.70
2019-01-04T04:58:18.254Z,69.50
2019-01-04T04:58:55.824Z,69.50
2019-01-04T04:59:32.434Z,69.30
2019-01-04T05:00:09.795Z,68.90
2019-01-04T05:00:46.813Z,68.50
2019-01-04T05:01:23.452Z,68.30
2019-01-04T05:02:00.235Z,68.40
2019-01-04T05:02:37.213Z,68.50
2019-01-04T05:03:13.834Z,68.50
2019-01-04T05:03:50.953Z,68.30
2019-01-04T05:04:27.718Z,68.30
2019-01-04T05:05:04.016Z,68.40
2019-01-04T05:05:40.856Z,68.20
2019-01-04T05:06:17.402Z,68.10
2019-01-04T05:06:53.982Z,68.30
2019-01-04T05:07:30.497Z,68.60
2019-01-04T05:08:07.235Z,68.90
2019-01-04T05:08:43.890Z,69.00
2019-01-04T05:09:20.832Z,69.10
2019-01-04T05:09:57.271Z,69.40
2019-01-04T05:10:33.841Z,69.70
2019-01-04T05:11:10.532Z,69.90
2019-01-04T05:11:47.251Z,69.90
2019-01-04T05:12:23.937Z,70.70
2019-01-04T05:13:00.759Z,70.10
2019-01-04T05:13:37.619Z,70.10
2019-01-04T05:14:13.809Z,70.00
2019-01-04T05:14:50.559Z,70.10
2019-01-04T05:15:27.466Z,70.10
2019-01-04T05:16:03.764Z,70.30
2019-01-04T05:16:40.185Z,70.20
2019-01-04T05:17:16.983Z,70.10
2019-01-04T05:17:53.873Z,70.20
2019-01-04T05:18:30.542Z,70.10
2019-01-04T05:19:07.103Z,69.90
2019-01-04T05:19:43.555Z,69.70
2019-01-04T05:20:20.120Z,69.90
2019-01-04T05:20:56.712Z,70.10
2019-01-04T05:21:33.329Z,70.20
2019-01-04T05:22:10.072Z,70.10
2019-01-04T05:22:47.810Z,70.00
2019-01-04T05:23:24.938Z,69.80
2019-01-04T05:24:01.571Z,69.70
2019-01-04T05:24:38.250Z,69.50
2019-01-04T05:25:15.020Z,69.30
2019-01-04T05:25:51.650Z,69.50
2019-01-04T05:26:28.190Z,69.60
2019-01-04T05:27:04.865Z,69.60
2019-01-04T05:27:41.620Z,69.60
2019-01-04T05:28:19.180Z,69.60
2019-01-04T05:28:56.119Z,69.40
2019-01-04T05:29:32.861Z,69.50
2019-01-04T05:30:10.172Z,69.60
2019-01-04T05:30:47.604Z,69.50
2019-01-04T05:31:23.998Z,69.50
2019-01-04T05:32:01.006Z,69.60
2019-01-04T05:32:37.949Z,69.50
2019-01-04T05:33:14.962Z,69.40
2019-01-04T05:33:52.061Z,69.40
2019-01-04T05:34:28.774Z,69.20
2019-01-04T05:35:05.304Z,69.30
2019-01-04T05:35:41.962Z,69.40
2019-01-04T05:36:18.595Z,69.40
2019-01-04T05:36:55.679Z,69.40
2019-01-04T05:37:32.769Z,69.80
2019-01-04T05:38:09.475Z,70.10
2019-01-04T05:38:45.564Z,70.10
2019-01-04T05:39:22.054Z,70.30
2019-01-04T05:39:58.544Z,70.50
2019-01-04T05:40:35.764Z,70.60
2019-01-04T05:41:12.566Z,70.50
2019-01-04T05:41:49.395Z,70.60
2019-01-04T05:42:26.484Z,70.60
2019-01-04T05:43:03.275Z,70.50
2019-01-04T05:43:39.973Z,70.50
2019-01-04T05:44:16.363Z,70.40
2019-01-04T05:44:53.128Z,70.30
2019-01-04T05:45:29.880Z,70.00
2019-01-04T05:46:06.281Z,69.90
2019-01-04T05:46:43.333Z,69.70
2019-01-04T05:47:19.844Z,69.80
2019-01-04T05:47:56.770Z,69.90
2019-01-04T05:48:33.959Z,70.00
2019-01-04T05:49:12.132Z,70.10
2019-01-04T05:49:49.069Z,70.20
2019-01-04T05:50:25.907Z,70.20
2019-01-04T05:51:02.337Z,70.20
2019-01-04T05:51:39.797Z,70.30
2019-01-04T05:52:16.679Z,70.10
2019-01-04T05:52:53.352Z,70.10
2019-01-04T05:53:30.197Z,70.20
2019-01-04T05:54:07.256Z,70.30
2019-01-04T05:54:44.759Z,70.40
2019-01-04T05:55:21.664Z,70.50
2019-01-04T05:55:58.395Z,70.40
2019-01-04T05:56:34.995Z,70.70
2019-01-04T05:57:11.725Z,70.50
2019-01-04T05:57:48.676Z,70.60
2019-01-04T05:58:25.088Z,70.70
2019-01-04T05:59:01.854Z,70.90
2019-01-04T05:59:38.473Z,71.10
2019-01-04T06:00:15.543Z,71.10
2019-01-04T06:00:52.449Z,71.20
2019-01-04T06:01:29.557Z,71.20
2019-01-04T06:02:06.759Z,71.20
2019-01-04T06:02:43.756Z,71.00
2019-01-04T06:03:20.875Z,71.00
2019-01-04T06:03:57.683Z,70.90
2019-01-04T06:04:34.717Z,70.90
2019-01-04T06:05:11.435Z,70.90
2019-01-04T06:05:48.048Z,71.10
2019-01-04T06:06:24.746Z,71.20
2019-01-04T06:07:01.508Z,71.20
2019-01-04T06:07:38.304Z,71.10
2019-01-04T06:08:15.270Z,71.00
2019-01-04T06:08:52.355Z,71.00
2019-01-04T06:09:28.870Z,70.90
2019-01-04T06:10:06.128Z,70.60
2019-01-04T06:10:42.706Z,70.40
2019-01-04T06:11:19.306Z,70.70
2019-01-04T06:11:56.012Z,71.00
2019-01-04T06:12:32.600Z,71.30
2019-01-04T06:13:09.426Z,71.40
2019-01-04T06:13:46.161Z,71.40
2019-01-04T06:14:22.857Z,71.30
2019-01-04T06:14:59.808Z,71.30
2019-01-04T06:15:36.778Z,71.10
2019-01-04T06:16:13.539Z,71.10
2019-01-04T06:16:49.951Z,71.10
2019-01-04T06:17:26.797Z,71.10
2019-01-04T06:18:03.500Z,70.90
2019-01-04T06:18:40.495Z,70.50
2019-01-04T06:19:16.912Z,70.40
2019-01-04T06:19:53.856Z,70.70
2019-01-04T06:20:30.988Z,70.80
2019-01-04T06:21:07.889Z,71.00
2019-01-04T06:21:44.809Z,71.10
2019-01-04T06:22:21.484Z,71.20
2019-01-04T06:22:58.264Z,71.30
2019-01-04T06:23:34.847Z,71.20
2019-01-04T06:24:11.693Z,71.10
2019-01-04T06:24:48.240Z,71.20
2019-01-04T06:25:25.331Z,71.30
2019-01-04T06:26:02.196Z,71.30
2019-01-04T06:26:39.109Z,71.40
2019-01-04T06:27:16.079Z,71.30
2019-01-04T06:27:52.920Z,71.30
2019-01-04T06:28:30.079Z,71.50
2019-01-04T06:29:08.001Z,71.50
2019-01-04T06:29:44.589Z,71.30
2019-01-04T06:30:21.234Z,71.10
2019-01-04T06:30:57.941Z,71.20
2019-01-04T06:31:34.377Z,71.10
2019-01-04T06:32:10.996Z,70.90
2019-01-04T06:32:47.466Z,71.00
2019-01-04T06:33:25.532Z,71.10
2019-01-04T06:34:02.111Z,71.00
2019-01-04T06:34:38.616Z,71.10
2019-01-04T06:35:15.076Z,71.10
2019-01-04T06:35:51.869Z,71.00
2019-01-04T06:36:28.727Z,71.00
2019-01-04T06:37:05.257Z,70.90
2019-01-04T06:37:42.145Z,70.70
2019-01-04T06:38:18.865Z,70.50
2019-01-04T06:38:55.389Z,70.40
2019-01-04T06:39:31.920Z,70.30
2019-01-04T06:40:10.399Z,70.40
2019-01-04T06:40:46.690Z,70.40
2019-01-04T06:41:23.267Z,70.50
2019-01-04T06:41:59.734Z,70.70
2019-01-04T06:42:36.190Z,70.80
2019-01-04T06:43:13.018Z,70.50
2019-01-04T06:43:51.757Z,70.50
2019-01-04T06:44:28.439Z,70.50
2019-01-04T06:45:05.920Z,70.50
2019-01-04T06:45:42.651Z,70.60
2019-01-04T06:46:20.173Z,71.00
2019-01-04T06:47:15.198Z,71.10
2019-01-04T06:47:51.694Z,71.20
2019-01-04T06:48:28.059Z,70.90
2019-01-04T06:49:04.884Z,70.70
2019-01-04T06:49:41.821Z,70.60
2019-01-04T06:50:18.689Z,70.60
2019-01-04T06:50:55.771Z,70.50
2019-01-04T06:51:32.641Z,70.50
2019-01-04T06:52:09.579Z,70.70
2019-01-04T06:52:46.569Z,70.80
2019-01-04T06:53:23.611Z,70.90
2019-01-04T06:54:00.090Z,71.00
2019-01-04T06:55:12.369Z,71.00
2019-01-04T06:55:51.152Z,71.10
2019-01-04T06:56:28.064Z,71.40
2019-01-04T06:57:04.672Z,71.40
2019-01-04T06:57:41.313Z,71.00
2019-01-04T06:58:19.464Z,70.90
2019-01-04T06:58:56.038Z,70.90
2019-01-04T06:59:32.991Z,71.00
2019-01-04T07:00:11.780Z,70.80
2019-01-04T07:00:48.833Z,70.90
2019-01-04T07:01:25.732Z,71.20
2019-01-04T07:02:02.660Z,71.20
2019-01-04T07:02:40.371Z,71.00
2019-01-04T07:03:16.814Z,71.20
2019-01-04T07:03:53.471Z,71.40
2019-01-04T07:04:30.520Z,71.40
2019-01-04T07:05:07.793Z,71.40
2019-01-04T07:05:44.860Z,71.60
2019-01-04T07:06:21.522Z,71.50
2019-01-04T07:06:58.290Z,71.60
2019-01-04T07:07:34.855Z,71.60
2019-01-04T07:08:11.611Z,71.70
2019-01-04T07:08:48.491Z,71.60
2019-01-04T07:09:25.250Z,71.50
2019-01-04T07:10:02.894Z,71.40
2019-01-04T07:10:39.337Z,71.50
2019-01-04T07:11:15.675Z,71.30
2019-01-04T07:11:52.680Z,71.20
2019-01-04T07:12:29.211Z,70.90
2019-01-04T07:13:05.711Z,70.40
2019-01-04T07:13:42.598Z,70.50
2019-01-04T07:14:18.720Z,70.70
2019-01-04T07:14:55.482Z,71.00
2019-01-04T07:15:31.891Z,71.10
2019-01-04T07:16:08.808Z,70.90
2019-01-04T07:16:45.530Z,71.90
2019-01-04T07:17:22.581Z,71.10
2019-01-04T07:17:59.277Z,71.20
2019-01-04T07:18:35.995Z,71.20
2019-01-04T07:19:11.032Z,71.10
2019-01-04T07:19:47.698Z,71.30
2019-01-04T07:20:22.567Z,71.30
2019-01-04T07:20:57.538Z,71.20
2019-01-04T07:21:34.106Z,71.20
2019-01-04T07:22:09.839Z,71.30
2019-01-04T07:22:45.028Z,70.90
2019-01-04T07:23:20.383Z,70.80
2019-01-04T07:23:56.197Z,70.80
2019-01-04T07:24:31.548Z,70.60
2019-01-04T07:25:07.209Z,70.50
2019-01-04T07:25:42.529Z,70.30
2019-01-04T07:26:18.272Z,70.30
2019-01-04T07:26:54.741Z,70.30
2019-01-04T07:27:30.859Z,70.50
2019-01-04T07:28:06.942Z,70.70
2019-01-04T07:28:43.657Z,70.60
2019-01-04T07:29:19.699Z,70.40
2019-01-04T07:29:55.458Z,70.30
2019-01-04T07:30:31.623Z,70.00
2019-01-04T07:31:08.019Z,69.90
2019-01-04T07:31:44.151Z,69.60
2019-01-04T07:32:20.315Z,69.40
2019-01-04T07:32:57.367Z,69.40
2019-01-04T07:33:33.811Z,69.10
2019-01-04T07:34:10.592Z,68.90
2019-01-04T07:34:46.893Z,69.10
2019-01-04T07:35:23.352Z,69.50
2019-01-04T07:36:00.151Z,69.60
2019-01-04T07:36:36.454Z,69.90
2019-01-04T07:37:14.040Z,70.60
2019-01-04T07:37:51.009Z,70.20
2019-01-04T07:38:27.486Z,70.50
2019-01-04T07:39:04.716Z,70.80
2019-01-04T07:39:41.379Z,70.90
2019-01-04T07:40:17.792Z,71.10
2019-01-04T07:40:54.480Z,71.20
2019-01-04T07:41:30.954Z,71.00
2019-01-04T07:42:07.770Z,71.00
2019-01-04T07:42:44.639Z,71.00
2019-01-04T07:43:21.313Z,70.60
2019-01-04T07:43:57.591Z,70.60
2019-01-04T07:44:33.867Z,70.60
2019-01-04T07:45:10.904Z,70.80
2019-01-04T07:45:47.404Z,70.90
2019-01-04T07:46:25.480Z,70.90
2019-01-04T07:47:02.150Z,71.10
2019-01-04T07:47:38.773Z,71.20
2019-01-04T07:48:15.464Z,71.60
2019-01-04T07:48:51.491Z,71.80
2019-01-04T07:49:27.803Z,71.70
2019-01-04T07:50:04.708Z,71.70
2019-01-04T07:50:41.420Z,71.80
2019-01-04T07:51:18.525Z,71.90
2019-01-04T07:51:56.679Z,71.80
2019-01-04T07:52:33.421Z,74.10
2019-01-04T07:53:11.351Z,78.60
2019-01-04T07:53:47.881Z,81.50
2019-01-04T07:54:24.763Z,77.30
2019-01-04T07:55:01.242Z,77.30
2019-01-04T07:55:37.840Z,73.90
2019-01-04T07:56:14.904Z,71.30
2019-01-04T07:56:51.730Z,69.10
2019-01-04T07:57:28.531Z,69.00
2019-01-04T07:58:05.233Z,67.80
2019-01-04T07:58:41.842Z,67.40
2019-01-04T07:59:18.151Z,68.30
2019-01-04T07:59:54.891Z,68.10
2019-01-04T08:00:31.323Z,68.40
2019-01-04T08:01:07.982Z,68.80
2019-01-04T08:01:44.728Z,68.90
2019-01-04T08:02:39.021Z,69.20
2019-01-04T08:03:16.211Z,69.10
2019-01-04T08:03:53.301Z,69.50
2019-01-04T08:04:31.036Z,69.60
2019-01-04T08:05:09.483Z,70.00
2019-01-04T08:05:45.852Z,69.90
2019-01-04T08:06:22.447Z,69.70
2019-01-04T08:06:58.952Z,70.20
2019-01-04T08:07:35.642Z,70.00
2019-01-04T08:08:12.383Z,70.10
2019-01-04T08:08:49.599Z,70.00
2019-01-04T08:09:25.512Z,69.90
2019-01-04T08:10:01.727Z,70.00
2019-01-04T08:10:38.815Z,70.10
2019-01-04T08:11:15.444Z,70.30
2019-01-04T08:11:52.594Z,70.70
2019-01-04T08:12:29.243Z,70.50
2019-01-04T08:13:05.255Z,71.10